KZR955 UAAA-UACC
Flight info
| Callsign | KZR955 |
|---|---|
| Flight time | 1h 37m |
| Altitude | 36000 |
| Route | ETEDA1J ETEDA W333 BANOS BANOS1G |
| Aircraft | A321/M-SDE3FGHIRWY/LB1 |
Departure
| Time | 2026-04-30 11:01 |
|---|---|
| Airport | Almaty International Airport (UAAA) |
Arrival
| Time | 2026-04-30 12:38 |
|---|---|
| Airport | Nursultan Nazarbayev International Airport (UACC) |
| Time | Latitude | Longitude | Altitude | Speed | Heading |
|---|---|---|---|---|---|
| 2026-04-30 10:36 | 43.34681 | 77.01311 | 2242 ft | 0 kts | 245° |
| 2026-04-30 10:52 | 43.34687 | 77.01328 | 2241 ft | 2 kts | 245° |
| 2026-04-30 10:53 | 43.34693 | 77.01347 | 2240 ft | 2 kts | 245° |
| 2026-04-30 10:53 | 43.34699 | 77.01366 | 2239 ft | 2 kts | 245° |
| 2026-04-30 10:53 | 43.34705 | 77.01384 | 2239 ft | 1 kts | 245° |
| 2026-04-30 10:53 | 43.34710 | 77.01397 | 2239 ft | 2 kts | 227° |
| 2026-04-30 10:54 | 43.34723 | 77.01407 | 2238 ft | 2 kts | 186° |
| 2026-04-30 10:54 | 43.34734 | 77.01405 | 2237 ft | 0 kts | 157° |
| 2026-04-30 10:54 | 43.34741 | 77.01401 | 2237 ft | 1 kts | 153° |
| 2026-04-30 10:54 | 43.34742 | 77.01400 | 2237 ft | 0 kts | 154° |
| 2026-04-30 10:58 | 43.34714 | 77.01419 | 2238 ft | 10 kts | 154° |
| 2026-04-30 10:58 | 43.34620 | 77.01472 | 2241 ft | 15 kts | 171° |
| 2026-04-30 10:58 | 43.34522 | 77.01504 | 2244 ft | 13 kts | 157° |
| 2026-04-30 10:59 | 43.34438 | 77.01557 | 2245 ft | 13 kts | 155° |
| 2026-04-30 10:59 | 43.34353 | 77.01612 | 2246 ft | 13 kts | 156° |
| 2026-04-30 10:59 | 43.34266 | 77.01665 | 2247 ft | 12 kts | 154° |
| 2026-04-30 10:59 | 43.34214 | 77.01700 | 2248 ft | 7 kts | 154° |
| 2026-04-30 11:00 | 43.34158 | 77.01744 | 2250 ft | 11 kts | 142° |
| 2026-04-30 11:00 | 43.34161 | 77.01821 | 2250 ft | 4 kts | 58° |
| 2026-04-30 11:00 | 43.34197 | 77.01897 | 2249 ft | 14 kts | 57° |
| 2026-04-30 11:00 | 43.34361 | 77.02226 | 2250 ft | 75 kts | 56° |
| 2026-04-30 11:01 | 43.34782 | 77.03064 | 2246 ft | 138 kts | 56° |
| 2026-04-30 11:01 | 43.35410 | 77.04358 | 2410 ft | 174 kts | 56° |
| 2026-04-30 11:01 | 43.36065 | 77.05743 | 3018 ft | 177 kts | 56° |
| 2026-04-30 11:01 | 43.36774 | 77.07138 | 3605 ft | 186 kts | 54° |
| 2026-04-30 11:02 | 43.37564 | 77.08621 | 4047 ft | 197 kts | 53° |
| 2026-04-30 11:02 | 43.38406 | 77.10216 | 4236 ft | 214 kts | 54° |
| 2026-04-30 11:02 | 43.39315 | 77.11924 | 4500 ft | 228 kts | 53° |
| 2026-04-30 11:02 | 43.40286 | 77.13705 | 4835 ft | 241 kts | 53° |
| 2026-04-30 11:03 | 43.41344 | 77.15595 | 5190 ft | 254 kts | 48° |
| 2026-04-30 11:03 | 43.42801 | 77.17024 | 5527 ft | 267 kts | 19° |
| 2026-04-30 11:03 | 43.44645 | 77.17235 | 5958 ft | 278 kts | 351° |
| 2026-04-30 11:04 | 43.47953 | 77.14397 | 7223 ft | 284 kts | 325° |
| 2026-04-30 11:04 | 43.49619 | 77.13019 | 7938 ft | 282 kts | 334° |
| 2026-04-30 11:04 | 43.51350 | 77.11801 | 8595 ft | 284 kts | 335° |
| 2026-04-30 11:04 | 43.53120 | 77.10533 | 9255 ft | 287 kts | 334° |
| 2026-04-30 11:05 | 43.54886 | 77.09212 | 9915 ft | 290 kts | 333° |
| 2026-04-30 11:05 | 43.56647 | 77.07852 | 10517 ft | 295 kts | 332° |
| 2026-04-30 11:05 | 43.58457 | 77.06426 | 10821 ft | 310 kts | 331° |
| 2026-04-30 11:05 | 43.60387 | 77.04881 | 11138 ft | 326 kts | 331° |
| 2026-04-30 11:06 | 43.62368 | 77.03281 | 11625 ft | 336 kts | 330° |
| 2026-04-30 11:06 | 43.63799 | 77.02120 | 12073 ft | 338 kts | 330° |
| 2026-04-30 11:06 | 43.65833 | 77.00467 | 12691 ft | 341 kts | 330° |
| 2026-04-30 11:06 | 43.67862 | 76.98814 | 13280 ft | 344 kts | 329° |
| 2026-04-30 11:07 | 43.69933 | 76.97121 | 13935 ft | 347 kts | 329° |
| 2026-04-30 11:07 | 43.72004 | 76.95425 | 14579 ft | 348 kts | 329° |
| 2026-04-30 11:07 | 43.74088 | 76.93717 | 15222 ft | 350 kts | 329° |
| 2026-04-30 11:07 | 43.76189 | 76.91994 | 15859 ft | 352 kts | 329° |
| 2026-04-30 11:08 | 43.78285 | 76.90273 | 16454 ft | 353 kts | 329° |
| 2026-04-30 11:08 | 43.80394 | 76.88542 | 17082 ft | 355 kts | 329° |
| 2026-04-30 11:08 | 43.82534 | 76.86785 | 17674 ft | 357 kts | 329° |
| 2026-04-30 11:08 | 43.84660 | 76.85036 | 18217 ft | 360 kts | 329° |
| 2026-04-30 11:09 | 43.86810 | 76.83267 | 18754 ft | 363 kts | 329° |
| 2026-04-30 11:09 | 43.88998 | 76.81465 | 19305 ft | 365 kts | 329° |
| 2026-04-30 11:09 | 43.91192 | 76.79656 | 19812 ft | 368 kts | 329° |
| 2026-04-30 11:09 | 43.93394 | 76.77839 | 20324 ft | 370 kts | 329° |
| 2026-04-30 11:10 | 43.95584 | 76.76030 | 20833 ft | 373 kts | 329° |
| 2026-04-30 11:10 | 43.97808 | 76.74192 | 21311 ft | 375 kts | 329° |
| 2026-04-30 11:10 | 44.00061 | 76.72327 | 21764 ft | 379 kts | 329° |
| 2026-04-30 11:10 | 44.02336 | 76.70443 | 22206 ft | 382 kts | 329° |
| 2026-04-30 11:11 | 44.04635 | 76.68536 | 22646 ft | 385 kts | 329° |
| 2026-04-30 11:11 | 44.06952 | 76.66613 | 23076 ft | 388 kts | 329° |
| 2026-04-30 11:11 | 44.09243 | 76.64709 | 23482 ft | 391 kts | 329° |
| 2026-04-30 11:11 | 44.11609 | 76.62744 | 23921 ft | 393 kts | 329° |
| 2026-04-30 11:12 | 44.14020 | 76.60951 | 24344 ft | 396 kts | 334° |
| 2026-04-30 11:12 | 44.16551 | 76.59515 | 24757 ft | 398 kts | 340° |
| 2026-04-30 11:12 | 44.19208 | 76.58431 | 25157 ft | 401 kts | 345° |
| 2026-04-30 11:12 | 44.21923 | 76.57506 | 25535 ft | 403 kts | 346° |
| 2026-04-30 11:13 | 44.24657 | 76.56610 | 25901 ft | 405 kts | 346° |
| 2026-04-30 11:13 | 44.27401 | 76.55708 | 26257 ft | 407 kts | 345° |
| 2026-04-30 11:13 | 44.30169 | 76.54790 | 26609 ft | 409 kts | 345° |
| 2026-04-30 11:13 | 44.32914 | 76.53758 | 26968 ft | 410 kts | 342° |
| 2026-04-30 11:14 | 44.35627 | 76.52503 | 27307 ft | 411 kts | 339° |
| 2026-04-30 11:14 | 44.38291 | 76.51042 | 27620 ft | 413 kts | 336° |
| 2026-04-30 11:14 | 44.40915 | 76.49520 | 27925 ft | 415 kts | 336° |
| 2026-04-30 11:14 | 44.43585 | 76.47955 | 28244 ft | 417 kts | 336° |
| 2026-04-30 11:15 | 44.46265 | 76.46381 | 28547 ft | 419 kts | 336° |
| 2026-04-30 11:15 | 44.48965 | 76.44796 | 28845 ft | 421 kts | 335° |
| 2026-04-30 11:15 | 44.51667 | 76.43209 | 29147 ft | 422 kts | 335° |
| 2026-04-30 11:15 | 44.54367 | 76.41624 | 29441 ft | 424 kts | 335° |
| 2026-04-30 11:16 | 44.57124 | 76.40005 | 29723 ft | 425 kts | 335° |
| 2026-04-30 11:16 | 44.59822 | 76.38418 | 29994 ft | 427 kts | 335° |
| 2026-04-30 11:16 | 44.62562 | 76.36807 | 30246 ft | 429 kts | 335° |
| 2026-04-30 11:16 | 44.65345 | 76.35167 | 30498 ft | 430 kts | 335° |
| 2026-04-30 11:17 | 44.68092 | 76.33546 | 30757 ft | 432 kts | 335° |
| 2026-04-30 11:17 | 44.70850 | 76.31921 | 31095 ft | 431 kts | 335° |
| 2026-04-30 11:17 | 44.73613 | 76.30290 | 31467 ft | 429 kts | 335° |
| 2026-04-30 11:17 | 44.76353 | 76.28671 | 31822 ft | 427 kts | 335° |
| 2026-04-30 11:18 | 44.79059 | 76.27069 | 32170 ft | 426 kts | 334° |
| 2026-04-30 11:18 | 44.84502 | 76.23843 | 32810 ft | 423 kts | 334° |
| 2026-04-30 11:18 | 44.87218 | 76.22231 | 33133 ft | 422 kts | 334° |
| 2026-04-30 11:19 | 44.89891 | 76.20644 | 33448 ft | 420 kts | 334° |
| 2026-04-30 11:19 | 44.92589 | 76.19038 | 33733 ft | 419 kts | 334° |
| 2026-04-30 11:19 | 44.95290 | 76.17428 | 34005 ft | 419 kts | 334° |
| 2026-04-30 11:19 | 44.97975 | 76.15828 | 34230 ft | 418 kts | 334° |
| 2026-04-30 11:20 | 45.00635 | 76.14239 | 34430 ft | 418 kts | 334° |
| 2026-04-30 11:20 | 45.03310 | 76.12640 | 34603 ft | 418 kts | 334° |
| 2026-04-30 11:20 | 45.05983 | 76.11040 | 34758 ft | 419 kts | 334° |
| 2026-04-30 11:20 | 45.08666 | 76.09433 | 34912 ft | 420 kts | 334° |
| 2026-04-30 11:21 | 45.11383 | 76.07806 | 35068 ft | 421 kts | 334° |
| 2026-04-30 11:21 | 45.14069 | 76.06195 | 35222 ft | 422 kts | 334° |
| 2026-04-30 11:21 | 45.16748 | 76.04586 | 35373 ft | 422 kts | 334° |
| 2026-04-30 11:21 | 45.19477 | 76.02946 | 35516 ft | 423 kts | 334° |
| 2026-04-30 11:22 | 45.22182 | 76.01318 | 35651 ft | 424 kts | 334° |
| 2026-04-30 11:22 | 45.24902 | 75.99680 | 35792 ft | 425 kts | 334° |
| 2026-04-30 11:22 | 45.27607 | 75.98049 | 35938 ft | 425 kts | 334° |
| 2026-04-30 11:22 | 45.30350 | 75.96391 | 35967 ft | 427 kts | 334° |
| 2026-04-30 11:23 | 45.35796 | 75.93099 | 35970 ft | 427 kts | 334° |
| 2026-04-30 11:24 | 45.43952 | 75.88156 | 35963 ft | 427 kts | 334° |
| 2026-04-30 11:24 | 45.49443 | 75.84818 | 35968 ft | 427 kts | 334° |
| 2026-04-30 11:25 | 45.57628 | 75.79831 | 35972 ft | 426 kts | 334° |
| 2026-04-30 11:26 | 45.68495 | 75.73179 | 35978 ft | 427 kts | 334° |
| 2026-04-30 11:26 | 45.73951 | 75.69833 | 35978 ft | 426 kts | 334° |
| 2026-04-30 11:27 | 45.79407 | 75.66486 | 35980 ft | 427 kts | 334° |
| 2026-04-30 11:27 | 45.84827 | 75.63152 | 35979 ft | 427 kts | 334° |
| 2026-04-30 11:28 | 45.92986 | 75.58115 | 35982 ft | 427 kts | 334° |
| 2026-04-30 11:29 | 45.98430 | 75.54745 | 35986 ft | 427 kts | 334° |
| 2026-04-30 11:29 | 46.06588 | 75.49681 | 35993 ft | 427 kts | 334° |
| 2026-04-30 11:30 | 46.14774 | 75.44579 | 35990 ft | 427 kts | 334° |
| 2026-04-30 11:31 | 46.20214 | 75.41178 | 35996 ft | 427 kts | 334° |
| 2026-04-30 11:31 | 46.25652 | 75.37794 | 35996 ft | 427 kts | 334° |
| 2026-04-30 11:32 | 46.31120 | 75.34402 | 36000 ft | 428 kts | 334° |
| 2026-04-30 11:32 | 46.36586 | 75.31001 | 36005 ft | 428 kts | 334° |
| 2026-04-30 11:33 | 46.44767 | 75.25892 | 36011 ft | 428 kts | 334° |
| 2026-04-30 11:33 | 46.50230 | 75.22470 | 36012 ft | 428 kts | 334° |
| 2026-04-30 11:34 | 46.55687 | 75.19044 | 36015 ft | 428 kts | 334° |
| 2026-04-30 11:34 | 46.61131 | 75.15617 | 36020 ft | 427 kts | 334° |
| 2026-04-30 11:35 | 46.66550 | 75.12198 | 36015 ft | 427 kts | 334° |
| 2026-04-30 11:35 | 46.72009 | 75.08747 | 36016 ft | 427 kts | 334° |
| 2026-04-30 11:36 | 46.77421 | 75.05317 | 36023 ft | 427 kts | 334° |
| 2026-04-30 11:36 | 46.82881 | 75.01847 | 36031 ft | 427 kts | 334° |
| 2026-04-30 11:37 | 46.88329 | 74.98412 | 36027 ft | 428 kts | 335° |
| 2026-04-30 11:37 | 46.93896 | 74.95306 | 36032 ft | 428 kts | 337° |
| 2026-04-30 11:38 | 46.99461 | 74.92256 | 36039 ft | 427 kts | 337° |
| 2026-04-30 11:38 | 47.05013 | 74.89200 | 36042 ft | 428 kts | 337° |
| 2026-04-30 11:39 | 47.10586 | 74.86117 | 36048 ft | 428 kts | 337° |
| 2026-04-30 11:39 | 47.16178 | 74.83017 | 36050 ft | 428 kts | 337° |
| 2026-04-30 11:40 | 47.21737 | 74.79928 | 36057 ft | 428 kts | 337° |
| 2026-04-30 11:40 | 47.27314 | 74.76821 | 36068 ft | 427 kts | 337° |
| 2026-04-30 11:41 | 47.32858 | 74.73727 | 36068 ft | 427 kts | 337° |
| 2026-04-30 11:41 | 47.38427 | 74.70608 | 36072 ft | 427 kts | 337° |
| 2026-04-30 11:42 | 47.43964 | 74.67498 | 36074 ft | 427 kts | 337° |
| 2026-04-30 11:42 | 47.49562 | 74.64349 | 36074 ft | 427 kts | 337° |
| 2026-04-30 11:43 | 47.55099 | 74.61233 | 36080 ft | 427 kts | 337° |
| 2026-04-30 11:43 | 47.60664 | 74.58124 | 36083 ft | 427 kts | 338° |
| 2026-04-30 11:44 | 47.66235 | 74.55003 | 36085 ft | 427 kts | 338° |
| 2026-04-30 11:44 | 47.71783 | 74.51885 | 36091 ft | 427 kts | 338° |
| 2026-04-30 11:45 | 47.77317 | 74.48766 | 36086 ft | 427 kts | 338° |
| 2026-04-30 11:45 | 47.82887 | 74.45618 | 36087 ft | 427 kts | 338° |
| 2026-04-30 11:46 | 47.88429 | 74.42478 | 36089 ft | 428 kts | 338° |
| 2026-04-30 11:46 | 47.94013 | 74.39307 | 36095 ft | 428 kts | 338° |
| 2026-04-30 11:47 | 47.99554 | 74.36153 | 36103 ft | 428 kts | 338° |
| 2026-04-30 11:47 | 48.05090 | 74.32993 | 36107 ft | 427 kts | 337° |
| 2026-04-30 11:48 | 48.10663 | 74.29804 | 36110 ft | 426 kts | 337° |
| 2026-04-30 11:48 | 48.16202 | 74.26648 | 36114 ft | 426 kts | 338° |
| 2026-04-30 11:49 | 48.21749 | 74.23520 | 36120 ft | 426 kts | 338° |
| 2026-04-30 11:49 | 48.27285 | 74.20386 | 36124 ft | 426 kts | 338° |
| 2026-04-30 11:50 | 48.32872 | 74.17212 | 36131 ft | 427 kts | 338° |
| 2026-04-30 11:50 | 48.38418 | 74.14050 | 36128 ft | 426 kts | 338° |
| 2026-04-30 11:51 | 48.43956 | 74.10887 | 36131 ft | 425 kts | 338° |
| 2026-04-30 11:51 | 48.49490 | 74.07719 | 36125 ft | 425 kts | 338° |
| 2026-04-30 11:52 | 48.55006 | 74.04554 | 36130 ft | 424 kts | 338° |
| 2026-04-30 11:52 | 48.60547 | 74.01366 | 36126 ft | 425 kts | 338° |
| 2026-04-30 11:53 | 48.66097 | 73.98164 | 36129 ft | 425 kts | 338° |
| 2026-04-30 11:53 | 48.71616 | 73.94972 | 36131 ft | 424 kts | 338° |
| 2026-04-30 11:54 | 48.77143 | 73.91767 | 36128 ft | 424 kts | 338° |
| 2026-04-30 11:54 | 48.82654 | 73.88566 | 36129 ft | 423 kts | 338° |
| 2026-04-30 11:55 | 48.88127 | 73.85377 | 36134 ft | 423 kts | 338° |
| 2026-04-30 11:55 | 48.93667 | 73.82142 | 36135 ft | 424 kts | 338° |
| 2026-04-30 11:56 | 48.99181 | 73.78915 | 36137 ft | 424 kts | 338° |
| 2026-04-30 11:56 | 49.04664 | 73.75693 | 36128 ft | 424 kts | 338° |
| 2026-04-30 11:57 | 49.10185 | 73.72437 | 36133 ft | 424 kts | 338° |
| 2026-04-30 11:57 | 49.15643 | 73.69208 | 36124 ft | 424 kts | 338° |
| 2026-04-30 11:58 | 49.21177 | 73.65926 | 36124 ft | 424 kts | 338° |
| 2026-04-30 11:58 | 49.26644 | 73.62677 | 36130 ft | 424 kts | 338° |
| 2026-04-30 11:59 | 49.32160 | 73.59390 | 36126 ft | 424 kts | 338° |
| 2026-04-30 11:59 | 49.37670 | 73.56096 | 36124 ft | 424 kts | 338° |
| 2026-04-30 12:00 | 49.43159 | 73.52807 | 36120 ft | 424 kts | 338° |
| 2026-04-30 12:00 | 49.48634 | 73.49518 | 36117 ft | 423 kts | 338° |
| 2026-04-30 12:01 | 49.54135 | 73.46205 | 36105 ft | 424 kts | 338° |
| 2026-04-30 12:01 | 49.59640 | 73.42884 | 36104 ft | 424 kts | 338° |
| 2026-04-30 12:02 | 49.64974 | 73.39155 | 36104 ft | 424 kts | 332° |
| 2026-04-30 12:02 | 49.69996 | 73.34473 | 36098 ft | 423 kts | 324° |
| 2026-04-30 12:03 | 49.76805 | 73.25828 | 36094 ft | 422 kts | 316° |
| 2026-04-30 12:04 | 49.81084 | 73.19646 | 36007 ft | 424 kts | 316° |
| 2026-04-30 12:04 | 49.83207 | 73.16568 | 35534 ft | 424 kts | 316° |
| 2026-04-30 12:04 | 49.85348 | 73.13460 | 34943 ft | 425 kts | 317° |
| 2026-04-30 12:04 | 49.87492 | 73.10348 | 34314 ft | 426 kts | 317° |
| 2026-04-30 12:05 | 49.89653 | 73.07217 | 33607 ft | 426 kts | 317° |
| 2026-04-30 12:05 | 49.91085 | 73.05141 | 33106 ft | 427 kts | 317° |
| 2026-04-30 12:05 | 49.93963 | 73.00964 | 32094 ft | 429 kts | 316° |
| 2026-04-30 12:05 | 49.96140 | 72.97798 | 31325 ft | 430 kts | 316° |
| 2026-04-30 12:06 | 49.98332 | 72.94605 | 30516 ft | 432 kts | 316° |
| 2026-04-30 12:06 | 50.00502 | 72.91438 | 29843 ft | 431 kts | 316° |
| 2026-04-30 12:06 | 50.02680 | 72.88254 | 29266 ft | 427 kts | 316° |
| 2026-04-30 12:06 | 50.04822 | 72.85118 | 28741 ft | 423 kts | 316° |
| 2026-04-30 12:07 | 50.06937 | 72.82016 | 28231 ft | 418 kts | 316° |
| 2026-04-30 12:07 | 50.09032 | 72.78941 | 27739 ft | 414 kts | 316° |
| 2026-04-30 12:07 | 50.11095 | 72.75909 | 27249 ft | 410 kts | 316° |
| 2026-04-30 12:07 | 50.13180 | 72.72839 | 26750 ft | 405 kts | 316° |
| 2026-04-30 12:08 | 50.15232 | 72.69816 | 26253 ft | 402 kts | 316° |
| 2026-04-30 12:08 | 50.17184 | 72.67066 | 25787 ft | 399 kts | 319° |
| 2026-04-30 12:08 | 50.19384 | 72.64487 | 25316 ft | 396 kts | 325° |
| 2026-04-30 12:08 | 50.21738 | 72.62250 | 24835 ft | 393 kts | 330° |
| 2026-04-30 12:09 | 50.24137 | 72.60302 | 24356 ft | 389 kts | 332° |
| 2026-04-30 12:09 | 50.26541 | 72.58415 | 23879 ft | 386 kts | 332° |
| 2026-04-30 12:09 | 50.28922 | 72.56549 | 23408 ft | 383 kts | 332° |
| 2026-04-30 12:09 | 50.31303 | 72.54678 | 22942 ft | 380 kts | 332° |
| 2026-04-30 12:10 | 50.33637 | 72.52837 | 22462 ft | 378 kts | 332° |
| 2026-04-30 12:10 | 50.35989 | 72.50979 | 21972 ft | 376 kts | 332° |
| 2026-04-30 12:10 | 50.38296 | 72.49150 | 21483 ft | 375 kts | 332° |
| 2026-04-30 12:10 | 50.40634 | 72.47293 | 20983 ft | 375 kts | 332° |
| 2026-04-30 12:11 | 50.42948 | 72.45453 | 20487 ft | 374 kts | 332° |
| 2026-04-30 12:11 | 50.45270 | 72.43604 | 19986 ft | 374 kts | 332° |
| 2026-04-30 12:11 | 50.47586 | 72.41759 | 19486 ft | 374 kts | 332° |
| 2026-04-30 12:11 | 50.49876 | 72.39931 | 18996 ft | 374 kts | 332° |
| 2026-04-30 12:12 | 50.52194 | 72.38081 | 18488 ft | 374 kts | 332° |
| 2026-04-30 12:12 | 50.54522 | 72.36218 | 17977 ft | 374 kts | 332° |
| 2026-04-30 12:12 | 50.56809 | 72.34386 | 17479 ft | 374 kts | 332° |
| 2026-04-30 12:12 | 50.59132 | 72.32524 | 16977 ft | 374 kts | 332° |
| 2026-04-30 12:13 | 50.61438 | 72.30675 | 16476 ft | 374 kts | 332° |
| 2026-04-30 12:13 | 50.63753 | 72.28813 | 15987 ft | 373 kts | 332° |
| 2026-04-30 12:13 | 50.66073 | 72.26947 | 15498 ft | 373 kts | 332° |
| 2026-04-30 12:13 | 50.68367 | 72.25101 | 15021 ft | 372 kts | 332° |
| 2026-04-30 12:14 | 50.70650 | 72.23259 | 14614 ft | 368 kts | 332° |
| 2026-04-30 12:14 | 50.72910 | 72.21435 | 14247 ft | 364 kts | 332° |
| 2026-04-30 12:14 | 50.75157 | 72.19624 | 13745 ft | 364 kts | 331° |
| 2026-04-30 12:14 | 50.77396 | 72.17815 | 13241 ft | 363 kts | 332° |
| 2026-04-30 12:15 | 50.79653 | 72.15987 | 12788 ft | 361 kts | 332° |
| 2026-04-30 12:15 | 50.81866 | 72.14193 | 12449 ft | 356 kts | 332° |
| 2026-04-30 12:15 | 50.84035 | 72.12432 | 11950 ft | 357 kts | 332° |
| 2026-04-30 12:15 | 50.86251 | 72.10631 | 11524 ft | 354 kts | 332° |
| 2026-04-30 12:16 | 50.88435 | 72.08853 | 11052 ft | 354 kts | 332° |
| 2026-04-30 12:16 | 50.90580 | 72.07106 | 10682 ft | 350 kts | 332° |
| 2026-04-30 12:16 | 50.92742 | 72.05344 | 10416 ft | 343 kts | 332° |
| 2026-04-30 12:16 | 50.94833 | 72.03641 | 10224 ft | 334 kts | 332° |
| 2026-04-30 12:17 | 50.98838 | 72.00372 | 9728 ft | 322 kts | 332° |
| 2026-04-30 12:17 | 51.00835 | 71.98737 | 9441 ft | 317 kts | 332° |
| 2026-04-30 12:17 | 51.02776 | 71.97147 | 9170 ft | 313 kts | 332° |
| 2026-04-30 12:18 | 51.04693 | 71.95576 | 8903 ft | 308 kts | 332° |
| 2026-04-30 12:18 | 51.06567 | 71.94038 | 8642 ft | 304 kts | 332° |
| 2026-04-30 12:18 | 51.08453 | 71.92489 | 8378 ft | 300 kts | 332° |
| 2026-04-30 12:18 | 51.10280 | 71.90988 | 8102 ft | 296 kts | 332° |
| 2026-04-30 12:19 | 51.12099 | 71.89492 | 7766 ft | 295 kts | 333° |
| 2026-04-30 12:19 | 51.13887 | 71.87876 | 7436 ft | 294 kts | 326° |
| 2026-04-30 12:19 | 51.15459 | 71.85857 | 7119 ft | 292 kts | 316° |
| 2026-04-30 12:19 | 51.16916 | 71.83571 | 6801 ft | 290 kts | 314° |
| 2026-04-30 12:20 | 51.18310 | 71.81291 | 6473 ft | 289 kts | 314° |
| 2026-04-30 12:20 | 51.19681 | 71.78973 | 6211 ft | 285 kts | 307° |
| 2026-04-30 12:20 | 51.20464 | 71.76141 | 5916 ft | 277 kts | 273° |
| 2026-04-30 12:20 | 51.20148 | 71.73246 | 5655 ft | 265 kts | 239° |
| 2026-04-30 12:21 | 51.18917 | 71.71220 | 5405 ft | 252 kts | 209° |
| 2026-04-30 12:21 | 51.17442 | 71.69858 | 5237 ft | 234 kts | 210° |
| 2026-04-30 12:21 | 51.16171 | 71.68382 | 5219 ft | 223 kts | 217° |
| 2026-04-30 12:21 | 51.15036 | 71.66685 | 5224 ft | 222 kts | 222° |
| 2026-04-30 12:22 | 51.13990 | 71.64973 | 5291 ft | 203 kts | 222° |
| 2026-04-30 12:22 | 51.13061 | 71.63469 | 5252 ft | 179 kts | 221° |
| 2026-04-30 12:22 | 51.12218 | 71.62135 | 5202 ft | 163 kts | 220° |
| 2026-04-30 12:22 | 51.11407 | 71.60877 | 5198 ft | 160 kts | 220° |
| 2026-04-30 12:23 | 51.10616 | 71.59654 | 4989 ft | 157 kts | 220° |
| 2026-04-30 12:23 | 51.09839 | 71.58450 | 4656 ft | 157 kts | 220° |
| 2026-04-30 12:23 | 51.09076 | 71.57264 | 4273 ft | 153 kts | 220° |
| 2026-04-30 12:23 | 51.08323 | 71.56091 | 3868 ft | 151 kts | 220° |
| 2026-04-30 12:24 | 51.07585 | 71.54939 | 3580 ft | 148 kts | 219° |
| 2026-04-30 12:24 | 51.06837 | 71.53770 | 3545 ft | 150 kts | 220° |
| 2026-04-30 12:24 | 51.06119 | 71.52541 | 3214 ft | 154 kts | 223° |
| 2026-04-30 12:24 | 51.05364 | 71.51285 | 2595 ft | 166 kts | 221° |
| 2026-04-30 12:25 | 51.04536 | 71.49989 | 2337 ft | 169 kts | 223° |
| 2026-04-30 12:25 | 51.03704 | 71.48595 | 2917 ft | 183 kts | 224° |
| 2026-04-30 12:25 | 51.02855 | 71.47144 | 3454 ft | 180 kts | 224° |
| 2026-04-30 12:25 | 51.01979 | 71.45642 | 3756 ft | 190 kts | 222° |
| 2026-04-30 12:26 | 51.01012 | 71.44106 | 3968 ft | 206 kts | 221° |
| 2026-04-30 12:26 | 50.99817 | 71.42661 | 4007 ft | 225 kts | 201° |
| 2026-04-30 12:26 | 50.98284 | 71.42348 | 3930 ft | 226 kts | 167° |
| 2026-04-30 12:26 | 50.96847 | 71.43361 | 3996 ft | 225 kts | 148° |
| 2026-04-30 12:27 | 50.95518 | 71.44649 | 4010 ft | 225 kts | 148° |
| 2026-04-30 12:27 | 50.94314 | 71.46192 | 3993 ft | 224 kts | 126° |
| 2026-04-30 12:27 | 50.93780 | 71.48467 | 4003 ft | 227 kts | 95° |
| 2026-04-30 12:27 | 50.94099 | 71.50941 | 4012 ft | 233 kts | 65° |
| 2026-04-30 12:28 | 50.95064 | 71.53016 | 4029 ft | 236 kts | 52° |
| 2026-04-30 12:28 | 50.96184 | 71.54932 | 4024 ft | 236 kts | 50° |
| 2026-04-30 12:28 | 50.97321 | 71.56805 | 4022 ft | 236 kts | 49° |
| 2026-04-30 12:28 | 50.98464 | 71.58678 | 4021 ft | 236 kts | 49° |
| 2026-04-30 12:29 | 50.99645 | 71.60616 | 4039 ft | 258 kts | 49° |
| 2026-04-30 12:29 | 51.00927 | 71.62738 | 4032 ft | 267 kts | 49° |
| 2026-04-30 12:29 | 51.02240 | 71.64844 | 4030 ft | 268 kts | 47° |
| 2026-04-30 12:29 | 51.03588 | 71.66891 | 4029 ft | 268 kts | 46° |
| 2026-04-30 12:30 | 51.04946 | 71.68933 | 3925 ft | 268 kts | 46° |
| 2026-04-30 12:30 | 51.06293 | 71.70956 | 3870 ft | 267 kts | 46° |
| 2026-04-30 12:30 | 51.07681 | 71.73047 | 3855 ft | 284 kts | 46° |
| 2026-04-30 12:30 | 51.09139 | 71.75212 | 3836 ft | 286 kts | 42° |
| 2026-04-30 12:31 | 51.10801 | 71.76922 | 3834 ft | 286 kts | 31° |
| 2026-04-30 12:31 | 51.12579 | 71.78397 | 3832 ft | 287 kts | 28° |
| 2026-04-30 12:31 | 51.14373 | 71.79641 | 3761 ft | 278 kts | 18° |
| 2026-04-30 12:31 | 51.16273 | 71.80110 | 3736 ft | 275 kts | 0° |
| 2026-04-30 12:32 | 51.18080 | 71.79380 | 3725 ft | 268 kts | 332° |
| 2026-04-30 12:32 | 51.19472 | 71.77456 | 3730 ft | 268 kts | 304° |
| 2026-04-30 12:32 | 51.20139 | 71.74747 | 3724 ft | 258 kts | 274° |
| 2026-04-30 12:32 | 51.19910 | 71.72055 | 3714 ft | 233 kts | 243° |
| 2026-04-30 12:33 | 51.19114 | 71.69915 | 3776 ft | 214 kts | 232° |
| 2026-04-30 12:33 | 51.18148 | 71.68302 | 3773 ft | 195 kts | 216° |
| 2026-04-30 12:33 | 51.17081 | 71.67074 | 3730 ft | 183 kts | 208° |
| 2026-04-30 12:33 | 51.15967 | 71.66116 | 3755 ft | 179 kts | 204° |
| 2026-04-30 12:34 | 51.14907 | 71.65215 | 3714 ft | 166 kts | 207° |
| 2026-04-30 12:34 | 51.13967 | 71.64273 | 3687 ft | 153 kts | 209° |
| 2026-04-30 12:34 | 51.13105 | 71.63301 | 3660 ft | 150 kts | 213° |
| 2026-04-30 12:34 | 51.12300 | 71.62236 | 3480 ft | 149 kts | 217° |
| 2026-04-30 12:35 | 51.11548 | 71.61124 | 3295 ft | 149 kts | 219° |
| 2026-04-30 12:35 | 51.10801 | 71.59969 | 3108 ft | 148 kts | 220° |
| 2026-04-30 12:35 | 51.10067 | 71.58823 | 2924 ft | 148 kts | 220° |
| 2026-04-30 12:35 | 51.09336 | 71.57679 | 2738 ft | 146 kts | 220° |
| 2026-04-30 12:36 | 51.08610 | 71.56545 | 2552 ft | 145 kts | 220° |
| 2026-04-30 12:36 | 51.07895 | 71.55431 | 2368 ft | 144 kts | 221° |
| 2026-04-30 12:36 | 51.07182 | 71.54319 | 2184 ft | 143 kts | 221° |
| 2026-04-30 12:36 | 51.06475 | 71.53215 | 2002 ft | 142 kts | 221° |
| 2026-04-30 12:37 | 51.05791 | 71.52088 | 1832 ft | 141 kts | 224° |
| 2026-04-30 12:37 | 51.05100 | 71.50985 | 1643 ft | 140 kts | 221° |
| 2026-04-30 12:37 | 51.04389 | 71.49917 | 1461 ft | 141 kts | 222° |
| 2026-04-30 12:37 | 51.03694 | 71.48838 | 1307 ft | 141 kts | 221° |
| 2026-04-30 12:38 | 51.02981 | 71.47765 | 1177 ft | 135 kts | 226° |
| 2026-04-30 12:38 | 51.02396 | 71.46862 | 1172 ft | 94 kts | 230° |
| 2026-04-30 12:38 | 51.02063 | 71.46311 | 1172 ft | 44 kts | 223° |
| 2026-04-30 12:38 | 51.01949 | 71.46128 | 1172 ft | 17 kts | 225° |
| 2026-04-30 12:39 | 51.01814 | 71.45927 | 1172 ft | 27 kts | 223° |
| 2026-04-30 12:39 | 51.01695 | 71.45740 | 1172 ft | 15 kts | 236° |
| 2026-04-30 12:39 | 51.01728 | 71.45605 | 1172 ft | 15 kts | 314° |
| 2026-04-30 12:39 | 51.01772 | 71.45532 | 1172 ft | 4 kts | 315° |
| 2026-04-30 12:40 | 51.01819 | 71.45497 | 1172 ft | 7 kts | 14° |
| 2026-04-30 12:40 | 51.01823 | 71.45499 | 1172 ft | 0 kts | 18° |
| 2026-04-30 12:40 | 51.01824 | 71.45499 | 1172 ft | 0 kts | 18° |
| 2026-04-30 12:40 | 51.01833 | 71.45504 | 1172 ft | 5 kts | 21° |
| 2026-04-30 12:41 | 51.01883 | 71.45573 | 1172 ft | 14 kts | 43° |
| 2026-04-30 12:41 | 51.01973 | 71.45711 | 1172 ft | 19 kts | 45° |
| 2026-04-30 12:41 | 51.02068 | 71.45865 | 1172 ft | 18 kts | 46° |
| 2026-04-30 12:41 | 51.02157 | 71.46001 | 1172 ft | 17 kts | 45° |
| 2026-04-30 12:42 | 51.02242 | 71.46137 | 1172 ft | 16 kts | 45° |
| 2026-04-30 12:42 | 51.02307 | 71.46231 | 1172 ft | 9 kts | 36° |
| 2026-04-30 12:42 | 51.02314 | 71.46239 | 1172 ft | 0 kts | 35° |
| 2026-04-30 12:42 | 51.02333 | 71.46245 | 1172 ft | 12 kts | 354° |
| 2026-04-30 12:43 | 51.02410 | 71.46149 | 1172 ft | 14 kts | 318° |
| 2026-04-30 12:43 | 51.02474 | 71.46073 | 1172 ft | 6 kts | 9° |
| 2026-04-30 12:43 | 51.02500 | 71.46121 | 1172 ft | 11 kts | 44° |
| 2026-04-30 12:43 | 51.02595 | 71.46266 | 1172 ft | 18 kts | 45° |
| 2026-04-30 12:44 | 51.02630 | 71.46425 | 1172 ft | 8 kts | 72° |
| 2026-04-30 12:44 | 51.02642 | 71.46430 | 1172 ft | 4 kts | 336° |
| 2026-04-30 12:44 | 51.02674 | 71.46394 | 1172 ft | 3 kts | 318° |
| 2026-04-30 12:44 | 51.02685 | 71.46378 | 1172 ft | 0 kts | 316° |